sensor_id;sensor_type;location;lat;lon;timestamp;temperature;humidity
11848;DHT22;5983;49.966;8.052;2023-07-08T00:00:26;20.00;99.90
11848;DHT22;5983;49.966;8.052;2023-07-08T00:02:54;19.90;99.90
11848;DHT22;5983;49.966;8.052;2023-07-08T00:05:22;19.90;99.90
11848;DHT22;5983;49.966;8.052;2023-07-08T00:07:51;19.90;99.90
11848;DHT22;5983;49.966;8.052;2023-07-08T00:10:21;19.80;99.90
11848;DHT22;5983;49.966;8.052;2023-07-08T00:12:51;19.80;99.90
11848;DHT22;5983;49.966;8.052;2023-07-08T00:15:21;19.80;99.90
11848;DHT22;5983;49.966;8.052;2023-07-08T00:17:50;19.80;99.90
11848;DHT22;5983;49.966;8.052;2023-07-08T00:20:21;19.80;99.90
11848;DHT22;5983;49.966;8.052;2023-07-08T00:22:54;19.80;99.90
11848;DHT22;5983;49.966;8.052;2023-07-08T00:25:23;19.70;99.90
11848;DHT22;5983;49.966;8.052;2023-07-08T00:27:51;19.70;99.90
11848;DHT22;5983;49.966;8.052;2023-07-08T00:30:21;19.70;99.90
11848;DHT22;5983;49.966;8.052;2023-07-08T00:32:50;19.70;99.90
11848;DHT22;5983;49.966;8.052;2023-07-08T00:35:33;19.70;99.90
11848;DHT22;5983;49.966;8.052;2023-07-08T00:38:04;19.80;99.90
11848;DHT22;5983;49.966;8.052;2023-07-08T00:40:50;19.80;99.90
11848;DHT22;5983;49.966;8.052;2023-07-08T00:43:19;19.80;99.90
11848;DHT22;5983;49.966;8.052;2023-07-08T00:46:03;19.80;99.90
11848;DHT22;5983;49.966;8.052;2023-07-08T00:48:40;19.90;99.90
11848;DHT22;5983;49.966;8.052;2023-07-08T00:51:08;19.90;99.90
11848;DHT22;5983;49.966;8.052;2023-07-08T00:53:38;19.90;99.90
11848;DHT22;5983;49.966;8.052;2023-07-08T00:56:11;20.00;99.90
11848;DHT22;5983;49.966;8.052;2023-07-08T00:58:44;20.00;99.90
11848;DHT22;5983;49.966;8.052;2023-07-08T01:01:14;19.90;99.90
11848;DHT22;5983;49.966;8.052;2023-07-08T01:03:45;19.90;99.90
11848;DHT22;5983;49.966;8.052;2023-07-08T01:06:17;19.90;99.90
11848;DHT22;5983;49.966;8.052;2023-07-08T01:08:46;19.80;99.90
11848;DHT22;5983;49.966;8.052;2023-07-08T01:11:17;19.90;99.90
11848;DHT22;5983;49.966;8.052;2023-07-08T01:13:48;19.80;99.90
11848;DHT22;5983;49.966;8.052;2023-07-08T01:16:17;19.80;99.90
11848;DHT22;5983;49.966;8.052;2023-07-08T01:18:44;19.90;99.90
11848;DHT22;5983;49.966;8.052;2023-07-08T01:21:31;19.90;99.90
11848;DHT22;5983;49.966;8.052;2023-07-08T01:24:05;20.00;99.90
11848;DHT22;5983;49.966;8.052;2023-07-08T01:26:36;20.00;99.90
11848;DHT22;5983;49.966;8.052;2023-07-08T01:29:06;19.90;99.90
11848;DHT22;5983;49.966;8.052;2023-07-08T01:31:34;19.80;99.90
11848;DHT22;5983;49.966;8.052;2023-07-08T01:34:02;19.70;99.90
11848;DHT22;5983;49.966;8.052;2023-07-08T01:36:31;19.60;99.90
11848;DHT22;5983;49.966;8.052;2023-07-08T01:39:05;19.60;99.90
11848;DHT22;5983;49.966;8.052;2023-07-08T01:41:32;19.70;99.90
11848;DHT22;5983;49.966;8.052;2023-07-08T01:43:59;19.80;99.90
11848;DHT22;5983;49.966;8.052;2023-07-08T01:46:31;19.90;99.90
11848;DHT22;5983;49.966;8.052;2023-07-08T01:49:00;20.00;99.90
11848;DHT22;5983;49.966;8.052;2023-07-08T01:51:28;20.00;99.90
11848;DHT22;5983;49.966;8.052;2023-07-08T01:53:56;20.00;99.90
11848;DHT22;5983;49.966;8.052;2023-07-08T01:56:24;20.00;99.90
11848;DHT22;5983;49.966;8.052;2023-07-08T01:58:52;20.00;99.90
11848;DHT22;5983;49.966;8.052;2023-07-08T02:01:19;20.00;99.90
11848;DHT22;5983;49.966;8.052;2023-07-08T02:03:46;20.10;99.90
11848;DHT22;5983;49.966;8.052;2023-07-08T02:06:13;20.10;99.90
11848;DHT22;5983;49.966;8.052;2023-07-08T02:08:41;20.10;99.90
11848;DHT22;5983;49.966;8.052;2023-07-08T02:11:08;20.00;99.90
11848;DHT22;5983;49.966;8.052;2023-07-08T02:13:36;20.00;99.90
11848;DHT22;5983;49.966;8.052;2023-07-08T02:16:06;19.90;99.90
11848;DHT22;5983;49.966;8.052;2023-07-08T02:18:33;19.90;99.90
11848;DHT22;5983;49.966;8.052;2023-07-08T02:21:01;19.80;99.90
11848;DHT22;5983;49.966;8.052;2023-07-08T02:23:28;19.80;99.90
11848;DHT22;5983;49.966;8.052;2023-07-08T02:26:00;19.70;99.90
11848;DHT22;5983;49.966;8.052;2023-07-08T02:28:27;19.70;99.90
11848;DHT22;5983;49.966;8.052;2023-07-08T02:30:55;19.70;99.90
11848;DHT22;5983;49.966;8.052;2023-07-08T02:33:22;19.60;99.90
11848;DHT22;5983;49.966;8.052;2023-07-08T02:35:53;19.60;99.90
11848;DHT22;5983;49.966;8.052;2023-07-08T02:38:20;19.60;99.90
11848;DHT22;5983;49.966;8.052;2023-07-08T02:40:47;19.50;99.90
11848;DHT22;5983;49.966;8.052;2023-07-08T02:43:14;19.50;99.90
11848;DHT22;5983;49.966;8.052;2023-07-08T02:45:42;19.50;99.90
11848;DHT22;5983;49.966;8.052;2023-07-08T02:48:10;19.60;99.90
11848;DHT22;5983;49.966;8.052;2023-07-08T02:50:37;19.60;99.90
11848;DHT22;5983;49.966;8.052;2023-07-08T02:53:04;19.70;99.90
11848;DHT22;5983;49.966;8.052;2023-07-08T02:55:32;19.70;99.90
11848;DHT22;5983;49.966;8.052;2023-07-08T02:57:59;19.70;99.90
11848;DHT22;5983;49.966;8.052;2023-07-08T03:00:26;19.80;99.90
11848;DHT22;5983;49.966;8.052;2023-07-08T03:02:54;19.80;99.90
11848;DHT22;5983;49.966;8.052;2023-07-08T03:05:22;19.80;99.90
11848;DHT22;5983;49.966;8.052;2023-07-08T03:07:50;19.80;99.90
11848;DHT22;5983;49.966;8.052;2023-07-08T03:10:17;19.80;99.90
11848;DHT22;5983;49.966;8.052;2023-07-08T03:12:44;19.80;99.90
11848;DHT22;5983;49.966;8.052;2023-07-08T03:15:11;19.80;99.90
11848;DHT22;5983;49.966;8.052;2023-07-08T03:17:38;19.80;99.90
11848;DHT22;5983;49.966;8.052;2023-07-08T03:20:07;19.70;99.90
11848;DHT22;5983;49.966;8.052;2023-07-08T03:22:37;19.70;99.90
11848;DHT22;5983;49.966;8.052;2023-07-08T03:25:05;19.60;99.90
11848;DHT22;5983;49.966;8.052;2023-07-08T03:27:33;19.60;99.90
11848;DHT22;5983;49.966;8.052;2023-07-08T03:30:00;19.50;99.90
11848;DHT22;5983;49.966;8.052;2023-07-08T03:32:29;19.50;99.90
11848;DHT22;5983;49.966;8.052;2023-07-08T03:34:56;19.50;99.90
11848;DHT22;5983;49.966;8.052;2023-07-08T03:37:23;19.50;99.90
11848;DHT22;5983;49.966;8.052;2023-07-08T03:39:52;19.50;99.90
11848;DHT22;5983;49.966;8.052;2023-07-08T03:42:20;19.60;99.90
11848;DHT22;5983;49.966;8.052;2023-07-08T03:44:47;19.60;99.90
11848;DHT22;5983;49.966;8.052;2023-07-08T03:47:14;19.60;99.90
11848;DHT22;5983;49.966;8.052;2023-07-08T03:49:41;19.50;99.90
11848;DHT22;5983;49.966;8.052;2023-07-08T03:52:14;19.50;99.90
11848;DHT22;5983;49.966;8.052;2023-07-08T03:54:43;19.50;99.90
11848;DHT22;5983;49.966;8.052;2023-07-08T03:57:13;19.40;99.90
11848;DHT22;5983;49.966;8.052;2023-07-08T03:59:40;19.40;99.90
11848;DHT22;5983;49.966;8.052;2023-07-08T04:02:09;19.40;99.90
11848;DHT22;5983;49.966;8.052;2023-07-08T04:04:37;19.40;99.90
11848;DHT22;5983;49.966;8.052;2023-07-08T04:07:04;19.40;99.90
11848;DHT22;5983;49.966;8.052;2023-07-08T04:09:32;19.40;99.90
11848;DHT22;5983;49.966;8.052;2023-07-08T04:11:59;19.30;99.90
11848;DHT22;5983;49.966;8.052;2023-07-08T04:14:27;19.30;99.90
11848;DHT22;5983;49.966;8.052;2023-07-08T04:16:57;19.30;99.90
11848;DHT22;5983;49.966;8.052;2023-07-08T04:19:26;19.30;99.90
11848;DHT22;5983;49.966;8.052;2023-07-08T04:21:53;19.30;99.90
11848;DHT22;5983;49.966;8.052;2023-07-08T04:24:21;19.30;99.90
11848;DHT22;5983;49.966;8.052;2023-07-08T04:26:49;19.40;99.90
11848;DHT22;5983;49.966;8.052;2023-07-08T04:29:19;19.40;99.90
11848;DHT22;5983;49.966;8.052;2023-07-08T04:31:49;19.50;99.90
11848;DHT22;5983;49.966;8.052;2023-07-08T04:34:16;19.50;99.90
11848;DHT22;5983;49.966;8.052;2023-07-08T04:37:07;19.60;99.90
11848;DHT22;5983;49.966;8.052;2023-07-08T04:43:56;19.70;99.90
11848;DHT22;5983;49.966;8.052;2023-07-08T04:47:03;19.70;99.90
11848;DHT22;5983;49.966;8.052;2023-07-08T04:50:29;19.80;99.90
11848;DHT22;5983;49.966;8.052;2023-07-08T04:54:31;19.80;99.90
11848;DHT22;5983;49.966;8.052;2023-07-08T04:57:07;19.80;99.90
11848;DHT22;5983;49.966;8.052;2023-07-08T05:00:24;19.90;99.90
11848;DHT22;5983;49.966;8.052;2023-07-08T05:03:38;20.00;99.90
11848;DHT22;5983;49.966;8.052;2023-07-08T05:06:05;20.00;99.90
11848;DHT22;5983;49.966;8.052;2023-07-08T05:08:32;20.10;99.90
11848;DHT22;5983;49.966;8.052;2023-07-08T05:10:59;20.10;99.90
11848;DHT22;5983;49.966;8.052;2023-07-08T05:13:26;20.20;99.90
11848;DHT22;5983;49.966;8.052;2023-07-08T05:15:52;20.20;99.90
11848;DHT22;5983;49.966;8.052;2023-07-08T05:18:19;20.20;99.90
11848;DHT22;5983;49.966;8.052;2023-07-08T05:20:51;20.20;99.90
11848;DHT22;5983;49.966;8.052;2023-07-08T05:23:20;20.20;99.90
11848;DHT22;5983;49.966;8.052;2023-07-08T05:25:47;20.30;99.90
11848;DHT22;5983;49.966;8.052;2023-07-08T05:28:14;20.20;99.90
11848;DHT22;5983;49.966;8.052;2023-07-08T05:30:42;20.20;99.90
11848;DHT22;5983;49.966;8.052;2023-07-08T05:33:09;20.20;99.90
11848;DHT22;5983;49.966;8.052;2023-07-08T05:35:35;20.20;99.90
11848;DHT22;5983;49.966;8.052;2023-07-08T05:38:04;20.20;99.90
11848;DHT22;5983;49.966;8.052;2023-07-08T05:40:31;20.30;99.90
11848;DHT22;5983;49.966;8.052;2023-07-08T05:42:58;20.30;99.90
11848;DHT22;5983;49.966;8.052;2023-07-08T05:45:24;20.30;99.90
11848;DHT22;5983;49.966;8.052;2023-07-08T05:47:51;20.30;99.90
11848;DHT22;5983;49.966;8.052;2023-07-08T05:50:18;20.30;99.90
11848;DHT22;5983;49.966;8.052;2023-07-08T05:52:45;20.20;99.90
11848;DHT22;5983;49.966;8.052;2023-07-08T05:55:14;20.30;99.90
11848;DHT22;5983;49.966;8.052;2023-07-08T05:57:41;20.30;99.90
11848;DHT22;5983;49.966;8.052;2023-07-08T06:00:09;20.30;99.90
11848;DHT22;5983;49.966;8.052;2023-07-08T06:02:36;20.30;99.90
11848;DHT22;5983;49.966;8.052;2023-07-08T06:05:04;20.30;99.90
11848;DHT22;5983;49.966;8.052;2023-07-08T06:07:31;20.40;99.90
11848;DHT22;5983;49.966;8.052;2023-07-08T06:09:58;20.40;99.90
11848;DHT22;5983;49.966;8.052;2023-07-08T06:12:27;20.50;99.90
11848;DHT22;5983;49.966;8.052;2023-07-08T06:14:55;20.50;99.90
11848;DHT22;5983;49.966;8.052;2023-07-08T06:17:22;20.60;99.90
11848;DHT22;5983;49.966;8.052;2023-07-08T06:19:49;20.70;99.90
11848;DHT22;5983;49.966;8.052;2023-07-08T06:22:16;20.80;99.90
11848;DHT22;5983;49.966;8.052;2023-07-08T06:24:43;20.80;99.90
11848;DHT22;5983;49.966;8.052;2023-07-08T06:27:10;21.00;99.90
11848;DHT22;5983;49.966;8.052;2023-07-08T06:29:39;21.10;99.90
11848;DHT22;5983;49.966;8.052;2023-07-08T06:32:07;21.20;99.90
11848;DHT22;5983;49.966;8.052;2023-07-08T06:34:35;21.40;99.90
11848;DHT22;5983;49.966;8.052;2023-07-08T06:37:02;21.50;99.90
11848;DHT22;5983;49.966;8.052;2023-07-08T06:39:28;21.70;99.90
11848;DHT22;5983;49.966;8.052;2023-07-08T06:41:55;21.80;99.90
11848;DHT22;5983;49.966;8.052;2023-07-08T06:44:22;22.00;99.90
11848;DHT22;5983;49.966;8.052;2023-07-08T06:46:52;22.10;99.90
11848;DHT22;5983;49.966;8.052;2023-07-08T06:49:19;22.30;99.90
11848;DHT22;5983;49.966;8.052;2023-07-08T06:51:46;22.40;99.90
11848;DHT22;5983;49.966;8.052;2023-07-08T06:54:13;22.60;99.90
11848;DHT22;5983;49.966;8.052;2023-07-08T06:56:41;22.70;99.90
11848;DHT22;5983;49.966;8.052;2023-07-08T06:59:09;22.90;99.90
11848;DHT22;5983;49.966;8.052;2023-07-08T07:01:36;23.10;99.90
11848;DHT22;5983;49.966;8.052;2023-07-08T07:04:04;23.20;99.90
11848;DHT22;5983;49.966;8.052;2023-07-08T07:06:31;23.40;99.90
11848;DHT22;5983;49.966;8.052;2023-07-08T07:08:58;23.50;99.90
11848;DHT22;5983;49.966;8.052;2023-07-08T07:11:25;23.60;99.90
11848;DHT22;5983;49.966;8.052;2023-07-08T07:13:53;23.60;99.90
11848;DHT22;5983;49.966;8.052;2023-07-08T07:16:20;23.50;99.90
11848;DHT22;5983;49.966;8.052;2023-07-08T07:18:47;23.50;99.90
11848;DHT22;5983;49.966;8.052;2023-07-08T07:21:16;23.50;99.90
11848;DHT22;5983;49.966;8.052;2023-07-08T07:23:43;23.50;99.90
11848;DHT22;5983;49.966;8.052;2023-07-08T07:26:10;23.50;99.90
11848;DHT22;5983;49.966;8.052;2023-07-08T07:28:37;23.70;99.90
11848;DHT22;5983;49.966;8.052;2023-07-08T07:31:04;24.00;99.90
11848;DHT22;5983;49.966;8.052;2023-07-08T07:33:32;24.30;99.90
11848;DHT22;5983;49.966;8.052;2023-07-08T07:36:00;24.50;99.90
11848;DHT22;5983;49.966;8.052;2023-07-08T07:38:28;24.70;99.90
11848;DHT22;5983;49.966;8.052;2023-07-08T07:40:56;24.90;99.90
11848;DHT22;5983;49.966;8.052;2023-07-08T07:43:25;25.00;99.90
11848;DHT22;5983;49.966;8.052;2023-07-08T07:45:53;25.20;99.90
11848;DHT22;5983;49.966;8.052;2023-07-08T07:48:20;25.30;99.90
11848;DHT22;5983;49.966;8.052;2023-07-08T07:50:47;25.50;99.90
11848;DHT22;5983;49.966;8.052;2023-07-08T07:53:16;25.70;99.90
11848;DHT22;5983;49.966;8.052;2023-07-08T07:55:45;25.80;99.90
11848;DHT22;5983;49.966;8.052;2023-07-08T07:58:12;25.90;99.90
11848;DHT22;5983;49.966;8.052;2023-07-08T08:00:39;25.90;99.90
11848;DHT22;5983;49.966;8.052;2023-07-08T08:03:06;26.00;99.90
11848;DHT22;5983;49.966;8.052;2023-07-08T08:05:33;26.10;99.90
11848;DHT22;5983;49.966;8.052;2023-07-08T08:08:00;26.30;99.90
11848;DHT22;5983;49.966;8.052;2023-07-08T08:10:29;26.50;99.90
11848;DHT22;5983;49.966;8.052;2023-07-08T08:12:57;26.70;99.90
11848;DHT22;5983;49.966;8.052;2023-07-08T08:15:24;26.90;99.90
11848;DHT22;5983;49.966;8.052;2023-07-08T08:17:51;27.20;99.90
11848;DHT22;5983;49.966;8.052;2023-07-08T08:20:19;27.60;99.90
11848;DHT22;5983;49.966;8.052;2023-07-08T08:22:47;27.80;99.90
11848;DHT22;5983;49.966;8.052;2023-07-08T08:25:14;27.90;99.90
11848;DHT22;5983;49.966;8.052;2023-07-08T08:27:42;28.00;99.70
11848;DHT22;5983;49.966;8.052;2023-07-08T08:30:11;28.00;99.60
11848;DHT22;5983;49.966;8.052;2023-07-08T08:32:38;28.00;99.90
11848;DHT22;5983;49.966;8.052;2023-07-08T08:35:06;28.00;99.90
11848;DHT22;5983;49.966;8.052;2023-07-08T08:37:34;28.10;99.90
11848;DHT22;5983;49.966;8.052;2023-07-08T08:40:01;28.00;99.90
11848;DHT22;5983;49.966;8.052;2023-07-08T08:42:32;28.00;99.70
11848;DHT22;5983;49.966;8.052;2023-07-08T08:45:11;28.00;99.90
11848;DHT22;5983;49.966;8.052;2023-07-08T08:47:44;27.90;99.90
11848;DHT22;5983;49.966;8.052;2023-07-08T08:50:25;27.90;99.90
11848;DHT22;5983;49.966;8.052;2023-07-08T08:52:57;27.80;99.30
11848;DHT22;5983;49.966;8.052;2023-07-08T08:55:25;27.80;97.30
11848;DHT22;5983;49.966;8.052;2023-07-08T08:58:02;27.70;93.30
11848;DHT22;5983;49.966;8.052;2023-07-08T09:00:48;27.60;90.80
11848;DHT22;5983;49.966;8.052;2023-07-08T09:03:30;27.50;88.30
11848;DHT22;5983;49.966;8.052;2023-07-08T09:06:10;27.50;85.00
11848;DHT22;5983;49.966;8.052;2023-07-08T09:08:39;27.50;84.70
11848;DHT22;5983;49.966;8.052;2023-07-08T09:11:18;27.50;83.80
11848;DHT22;5983;49.966;8.052;2023-07-08T09:13:51;27.60;81.90
11848;DHT22;5983;49.966;8.052;2023-07-08T09:16:29;27.60;79.30
11848;DHT22;5983;49.966;8.052;2023-07-08T09:19:12;27.70;78.00
11848;DHT22;5983;49.966;8.052;2023-07-08T09:21:46;27.80;76.90
11848;DHT22;5983;49.966;8.052;2023-07-08T09:24:22;27.90;75.90
11848;DHT22;5983;49.966;8.052;2023-07-08T09:26:57;28.00;75.70
11848;DHT22;5983;49.966;8.052;2023-07-08T09:29:26;28.10;73.90
11848;DHT22;5983;49.966;8.052;2023-07-08T09:31:55;28.10;72.40
11848;DHT22;5983;49.966;8.052;2023-07-08T09:34:36;28.20;71.10
11848;DHT22;5983;49.966;8.052;2023-07-08T09:37:21;28.20;71.10
11848;DHT22;5983;49.966;8.052;2023-07-08T09:39:52;28.20;70.40
11848;DHT22;5983;49.966;8.052;2023-07-08T09:42:20;28.20;69.70
11848;DHT22;5983;49.966;8.052;2023-07-08T09:44:55;28.30;70.00
11848;DHT22;5983;49.966;8.052;2023-07-08T09:47:26;28.50;69.70
11848;DHT22;5983;49.966;8.052;2023-07-08T09:49:57;28.70;69.40
11848;DHT22;5983;49.966;8.052;2023-07-08T09:52:25;28.90;69.00
11848;DHT22;5983;49.966;8.052;2023-07-08T09:54:52;29.00;69.60
11848;DHT22;5983;49.966;8.052;2023-07-08T09:57:26;29.20;68.40
11848;DHT22;5983;49.966;8.052;2023-07-08T09:59:58;29.40;67.70
11848;DHT22;5983;49.966;8.052;2023-07-08T10:02:31;29.50;67.40
11848;DHT22;5983;49.966;8.052;2023-07-08T10:05:12;29.70;67.00
11848;DHT22;5983;49.966;8.052;2023-07-08T10:07:45;29.80;65.80
11848;DHT22;5983;49.966;8.052;2023-07-08T10:10:16;29.60;66.10
11848;DHT22;5983;49.966;8.052;2023-07-08T10:12:53;29.60;67.20
11848;DHT22;5983;49.966;8.052;2023-07-08T10:15:27;29.70;67.90
11848;DHT22;5983;49.966;8.052;2023-07-08T10:18:01;29.80;67.30
11848;DHT22;5983;49.966;8.052;2023-07-08T10:20:38;30.00;67.00
11848;DHT22;5983;49.966;8.052;2023-07-08T10:23:22;30.00;67.30
11848;DHT22;5983;49.966;8.052;2023-07-08T10:26:13;30.10;68.40
11848;DHT22;5983;49.966;8.052;2023-07-08T10:28:53;30.20;67.20
11848;DHT22;5983;49.966;8.052;2023-07-08T10:31:32;30.20;66.60
11848;DHT22;5983;49.966;8.052;2023-07-08T10:34:18;30.10;67.10
11848;DHT22;5983;49.966;8.052;2023-07-08T10:37:07;30.20;67.80
11848;DHT22;5983;49.966;8.052;2023-07-08T10:40:09;30.10;67.20
11848;DHT22;5983;49.966;8.052;2023-07-08T10:42:56;30.20;67.50
11848;DHT22;5983;49.966;8.052;2023-07-08T10:45:34;30.30;67.80
11848;DHT22;5983;49.966;8.052;2023-07-08T10:48:21;30.40;67.70
11848;DHT22;5983;49.966;8.052;2023-07-08T10:51:08;30.50;66.40
11848;DHT22;5983;49.966;8.052;2023-07-08T10:53:58;30.50;66.10
11848;DHT22;5983;49.966;8.052;2023-07-08T10:56:39;30.50;66.30
11848;DHT22;5983;49.966;8.052;2023-07-08T10:59:21;30.60;65.70
11848;DHT22;5983;49.966;8.052;2023-07-08T11:02:21;30.80;65.90
11848;DHT22;5983;49.966;8.052;2023-07-08T11:05:11;30.90;66.20
11848;DHT22;5983;49.966;8.052;2023-07-08T11:07:53;31.20;65.60
11848;DHT22;5983;49.966;8.052;2023-07-08T11:10:27;31.20;65.00
11848;DHT22;5983;49.966;8.052;2023-07-08T11:13:02;31.40;65.00
11848;DHT22;5983;49.966;8.052;2023-07-08T11:15:44;31.40;65.10
11848;DHT22;5983;49.966;8.052;2023-07-08T11:18:21;31.40;64.40
11848;DHT22;5983;49.966;8.052;2023-07-08T11:20:59;31.50;64.20
11848;DHT22;5983;49.966;8.052;2023-07-08T11:23:36;31.40;63.50
11848;DHT22;5983;49.966;8.052;2023-07-08T11:26:12;31.50;64.00
11848;DHT22;5983;49.966;8.052;2023-07-08T11:28:45;31.40;64.40
11848;DHT22;5983;49.966;8.052;2023-07-08T11:31:14;31.50;64.00
11848;DHT22;5983;49.966;8.052;2023-07-08T11:33:43;31.50;64.00
11848;DHT22;5983;49.966;8.052;2023-07-08T11:36:12;31.50;63.90
11848;DHT22;5983;49.966;8.052;2023-07-08T11:38:48;31.50;63.90
11848;DHT22;5983;49.966;8.052;2023-07-08T11:41:19;31.60;64.10
11848;DHT22;5983;49.966;8.052;2023-07-08T11:43:51;31.60;64.60
11848;DHT22;5983;49.966;8.052;2023-07-08T11:46:23;31.50;64.10
11848;DHT22;5983;49.966;8.052;2023-07-08T11:48:56;31.50;64.70
11848;DHT22;5983;49.966;8.052;2023-07-08T11:51:30;31.60;64.10
11848;DHT22;5983;49.966;8.052;2023-07-08T11:54:11;31.70;64.10
11848;DHT22;5983;49.966;8.052;2023-07-08T11:56:49;31.70;63.70
11848;DHT22;5983;49.966;8.052;2023-07-08T11:59:25;31.80;64.00
11848;DHT22;5983;49.966;8.052;2023-07-08T12:01:54;31.90;64.10
11848;DHT22;5983;49.966;8.052;2023-07-08T12:04:31;32.00;63.30
11848;DHT22;5983;49.966;8.052;2023-07-08T12:07:12;32.00;63.20
11848;DHT22;5983;49.966;8.052;2023-07-08T12:09:47;32.00;62.80
11848;DHT22;5983;49.966;8.052;2023-07-08T12:12:22;32.00;62.10
11848;DHT22;5983;49.966;8.052;2023-07-08T12:14:55;32.00;61.80
11848;DHT22;5983;49.966;8.052;2023-07-08T12:17:28;32.10;62.10
11848;DHT22;5983;49.966;8.052;2023-07-08T12:19:58;32.10;62.20
11848;DHT22;5983;49.966;8.052;2023-07-08T12:22:28;32.30;63.40
11848;DHT22;5983;49.966;8.052;2023-07-08T12:24:57;32.40;61.70
11848;DHT22;5983;49.966;8.052;2023-07-08T12:27:30;32.30;61.30
11848;DHT22;5983;49.966;8.052;2023-07-08T12:29:58;32.30;61.40
11848;DHT22;5983;49.966;8.052;2023-07-08T12:32:25;32.40;60.70
11848;DHT22;5983;49.966;8.052;2023-07-08T12:34:54;32.40;60.50
11848;DHT22;5983;49.966;8.052;2023-07-08T12:37:22;32.50;60.90
11848;DHT22;5983;49.966;8.052;2023-07-08T12:39:54;32.50;60.70
11848;DHT22;5983;49.966;8.052;2023-07-08T12:42:25;32.50;60.00
11848;DHT22;5983;49.966;8.052;2023-07-08T12:44:52;32.50;60.20
11848;DHT22;5983;49.966;8.052;2023-07-08T12:47:20;32.50;60.70
11848;DHT22;5983;49.966;8.052;2023-07-08T12:49:47;32.60;61.00
11848;DHT22;5983;49.966;8.052;2023-07-08T12:52:23;32.60;60.10
11848;DHT22;5983;49.966;8.052;2023-07-08T12:54:50;32.60;59.40
11848;DHT22;5983;49.966;8.052;2023-07-08T12:57:19;32.60;59.00
11848;DHT22;5983;49.966;8.052;2023-07-08T12:59:46;32.70;59.20
11848;DHT22;5983;49.966;8.052;2023-07-08T13:02:16;32.60;58.90
11848;DHT22;5983;49.966;8.052;2023-07-08T13:04:47;32.60;58.70
11848;DHT22;5983;49.966;8.052;2023-07-08T13:07:25;32.50;57.30
11848;DHT22;5983;49.966;8.052;2023-07-08T13:09:59;32.50;57.40
11848;DHT22;5983;49.966;8.052;2023-07-08T13:12:28;32.50;57.50
11848;DHT22;5983;49.966;8.052;2023-07-08T13:14:59;32.50;57.70
11848;DHT22;5983;49.966;8.052;2023-07-08T13:17:26;32.60;58.00
11848;DHT22;5983;49.966;8.052;2023-07-08T13:19:54;32.60;57.80
11848;DHT22;5983;49.966;8.052;2023-07-08T13:22:23;32.60;57.50
11848;DHT22;5983;49.966;8.052;2023-07-08T13:24:59;32.70;57.00
11848;DHT22;5983;49.966;8.052;2023-07-08T13:27:28;32.70;56.80
11848;DHT22;5983;49.966;8.052;2023-07-08T13:30:06;32.70;55.50
11848;DHT22;5983;49.966;8.052;2023-07-08T13:32:42;32.70;56.80
11848;DHT22;5983;49.966;8.052;2023-07-08T13:35:21;32.70;57.00
11848;DHT22;5983;49.966;8.052;2023-07-08T13:37:50;32.80;57.00
11848;DHT22;5983;49.966;8.052;2023-07-08T13:40:17;32.80;57.30
11848;DHT22;5983;49.966;8.052;2023-07-08T13:42:50;32.90;56.60
11848;DHT22;5983;49.966;8.052;2023-07-08T13:45:23;32.90;55.60
11848;DHT22;5983;49.966;8.052;2023-07-08T13:48:11;32.90;55.10
11848;DHT22;5983;49.966;8.052;2023-07-08T13:50:45;32.90;54.60
11848;DHT22;5983;49.966;8.052;2023-07-08T13:53:21;33.00;54.40
11848;DHT22;5983;49.966;8.052;2023-07-08T13:55:57;32.90;54.00
11848;DHT22;5983;49.966;8.052;2023-07-08T13:58:29;32.90;54.00
11848;DHT22;5983;49.966;8.052;2023-07-08T14:00:57;33.00;54.60
11848;DHT22;5983;49.966;8.052;2023-07-08T14:03:25;33.10;54.70
11848;DHT22;5983;49.966;8.052;2023-07-08T14:05:52;33.20;54.80
11848;DHT22;5983;49.966;8.052;2023-07-08T14:08:19;33.20;55.00
11848;DHT22;5983;49.966;8.052;2023-07-08T14:10:47;33.20;54.70
11848;DHT22;5983;49.966;8.052;2023-07-08T14:13:14;33.00;54.70
11848;DHT22;5983;49.966;8.052;2023-07-08T14:15:45;32.90;55.10
11848;DHT22;5983;49.966;8.052;2023-07-08T14:18:12;32.70;55.10
11848;DHT22;5983;49.966;8.052;2023-07-08T14:20:40;32.50;55.80
11848;DHT22;5983;49.966;8.052;2023-07-08T14:23:09;32.40;55.70
11848;DHT22;5983;49.966;8.052;2023-07-08T14:25:38;32.40;55.70
11848;DHT22;5983;49.966;8.052;2023-07-08T14:28:05;32.40;55.70
11848;DHT22;5983;49.966;8.052;2023-07-08T14:30:32;32.60;56.00
11848;DHT22;5983;49.966;8.052;2023-07-08T14:33:03;32.70;55.50
11848;DHT22;5983;49.966;8.052;2023-07-08T14:35:31;32.90;55.10
11848;DHT22;5983;49.966;8.052;2023-07-08T14:37:58;32.90;55.10
11848;DHT22;5983;49.966;8.052;2023-07-08T14:40:31;32.90;55.50
11848;DHT22;5983;49.966;8.052;2023-07-08T14:43:01;32.70;55.20
11848;DHT22;5983;49.966;8.052;2023-07-08T14:45:39;32.70;55.60
11848;DHT22;5983;49.966;8.052;2023-07-08T14:48:12;32.70;55.70
11848;DHT22;5983;49.966;8.052;2023-07-08T14:50:39;32.60;55.60
11848;DHT22;5983;49.966;8.052;2023-07-08T14:53:07;32.60;56.40
11848;DHT22;5983;49.966;8.052;2023-07-08T14:55:35;32.60;56.30
11848;DHT22;5983;49.966;8.052;2023-07-08T14:58:04;32.50;56.30
11848;DHT22;5983;49.966;8.052;2023-07-08T15:00:31;32.50;56.80
11848;DHT22;5983;49.966;8.052;2023-07-08T15:02:58;32.40;57.30
11848;DHT22;5983;49.966;8.052;2023-07-08T15:05:28;32.30;57.60
11848;DHT22;5983;49.966;8.052;2023-07-08T15:07:56;32.20;57.80
11848;DHT22;5983;49.966;8.052;2023-07-08T15:10:25;32.10;58.30
11848;DHT22;5983;49.966;8.052;2023-07-08T15:12:55;32.10;57.40
11848;DHT22;5983;49.966;8.052;2023-07-08T15:15:28;32.20;57.10
11848;DHT22;5983;49.966;8.052;2023-07-08T15:17:57;32.10;56.80
11848;DHT22;5983;49.966;8.052;2023-07-08T15:20:25;32.00;57.50
11848;DHT22;5983;49.966;8.052;2023-07-08T15:22:53;32.00;58.10
11848;DHT22;5983;49.966;8.052;2023-07-08T15:25:20;31.90;57.30
11848;DHT22;5983;49.966;8.052;2023-07-08T15:27:50;31.90;57.60
11848;DHT22;5983;49.966;8.052;2023-07-08T15:30:21;31.80;58.60
11848;DHT22;5983;49.966;8.052;2023-07-08T15:32:50;31.80;59.00
11848;DHT22;5983;49.966;8.052;2023-07-08T15:35:20;31.60;59.50
11848;DHT22;5983;49.966;8.052;2023-07-08T15:37:51;31.60;60.70
11848;DHT22;5983;49.966;8.052;2023-07-08T15:40:20;31.40;60.90
11848;DHT22;5983;49.966;8.052;2023-07-08T15:42:49;31.40;61.60
11848;DHT22;5983;49.966;8.052;2023-07-08T15:45:23;31.30;60.80
11848;DHT22;5983;49.966;8.052;2023-07-08T15:47:52;31.40;59.80
11848;DHT22;5983;49.966;8.052;2023-07-08T15:50:21;31.40;59.50
11848;DHT22;5983;49.966;8.052;2023-07-08T15:52:51;31.40;59.00
11848;DHT22;5983;49.966;8.052;2023-07-08T15:55:24;31.30;58.50
11848;DHT22;5983;49.966;8.052;2023-07-08T15:57:57;31.30;58.00
11848;DHT22;5983;49.966;8.052;2023-07-08T16:00:29;31.30;58.10
11848;DHT22;5983;49.966;8.052;2023-07-08T16:03:00;31.20;58.80
11848;DHT22;5983;49.966;8.052;2023-07-08T16:05:30;31.20;58.40
11848;DHT22;5983;49.966;8.052;2023-07-08T16:08:00;31.10;58.70
11848;DHT22;5983;49.966;8.052;2023-07-08T16:10:28;31.10;59.30
11848;DHT22;5983;49.966;8.052;2023-07-08T16:12:56;31.00;58.90
11848;DHT22;5983;49.966;8.052;2023-07-08T16:15:28;31.00;58.60